Aérodrome :
LOGIN :

S'inscrire | Disclaimer

   EN    FR    IT 

 










Légende :    VFR   VFR Marginal   IFR   IFR Intensif   IFR Très Intensif
Visi : 
Plafond : 
>= 8 km
>= 3000ft
5 à 8 km
1000 à 3000 ft
1500m à 5 km
500 à 1000 ft
800 à 1500m
200 à 500 ft
< 800m
< 200 ft
Symboles :   Orages  Brouillard  Fortes neiges  Fortes précipitations  Vent > 20 kt
SIGMETs :   Divers  Orages  Givrage  Turbulence  Onde Orograph.  Cendres Volcan.






- Altitude de l'aérodrome : 538 ft
- Code IATA : TNF


LFPN - Toussus Le Noble

DERNIER METAR :
  • 091800Z AUTO 34006KT 9999 OVC011 M00/M01 Q1006 TEMPO BKN003

METARs EXPIRÉS :
  • 091730Z AUTO 33006KT 9999 BKN009 M01/M02 Q1006 TEMPO 3000 BR OVC003
  • 091700Z AUTO 34006KT 9999 SCT009 M01/M02 Q1005 BECMG OVC008
  • 091630Z AUTO 35006KT 9999 BKN009 BKN130 M00/M01 Q1005 TEMPO FEW010 SCT020
  • 091600Z AUTO 35007KT CAVOK M00/M02 Q1005 NOSIG

TAF TAF LFPN
Valide du 09 à 18h jusqu'au 10 à 03h UTC


091700Z 0918/1003 35004KT 9999 BKN008
TEMPO 0919/1003 BKN003
PROB40
TEMPO 0921/1003 3000 BR
ATIS : +33 1 39 56 54 70



MET'MAP, la Météo Aéronautique d'un coup d'oeil ! - Copyright ORBIFLY Décembre 2007 - Disclaimer

ORBIFLY MET'MAP TEAM :

Programmation & Développement : Alexandra Zaïnal
Sur une idée originale de : Baudouin d'Aumeries
Soutien technique & logistique : Manuel Goepfert
Assistance : Marc-Olivier Méhu




SOURCES & CREDITS :

   NOAA